Time;durP1;ratioP1;P1;durP2;ratioP2;P2;SDS_P1;SDS_P2;PMS_P1;PMS_P2;Temp;Humidity;BMP_temperature;BMP_pressure;BME280_temperature;BME280_humidity;BME280_pressure;Samples;Min_cycle;Max_cycle;Signal;HPM_P1;HPM_P2
2022/12/09 00:01:20;;;;;;;31.38;13.32;;;13.10;99.90;;;;;;4929611;29;20062;-73
2022/12/09 00:03:48;;;;;;;;;;;13.10;99.90;;;;;;4929373;29;20048;-72
2022/12/09 00:06:18;;;;;;;28.65;12.10;;;13.00;99.90;;;;;;4938578;29;19949;-73
2022/12/09 00:08:46;;;;;;;25.13;12.13;;;13.00;99.90;;;;;;4926527;29;20431;-72
2022/12/09 00:11:13;;;;;;;38.45;15.30;;;13.00;99.90;;;;;;4929360;29;20600;-72
2022/12/09 00:13:41;;;;;;;27.30;12.80;;;13.00;99.90;;;;;;4927002;29;20532;-73
2022/12/09 00:16:12;;;;;;;27.25;11.15;;;13.00;99.90;;;;;;4930313;29;20149;-72
2022/12/09 00:18:40;;;;;;;29.90;12.05;;;13.10;99.90;;;;;;4928747;29;20050;-73
2022/12/09 00:21:29;;;;;;;26.73;12.02;;;13.10;99.90;;;;;;4928649;29;20487;-72
2022/12/09 00:23:58;;;;;;;38.28;11.98;;;13.10;99.90;;;;;;4923335;29;20058;-72
2022/12/09 00:26:26;;;;;;;27.45;11.25;;;13.10;99.90;;;;;;4926085;29;20076;-73
2022/12/09 00:28:55;;;;;;;26.52;12.80;;;13.20;99.90;;;;;;4929488;29;20062;-72
2022/12/09 00:31:26;;;;;;;39.08;12.30;;;13.20;99.90;;;;;;4927449;29;20046;-72
2022/12/09 00:34:00;;;;;;;31.17;11.73;;;13.20;99.90;;;;;;4928547;29;20445;-73
2022/12/09 00:36:29;;;;;;;35.25;11.13;;;13.20;99.90;;;;;;4929274;29;20039;-73
2022/12/09 00:38:57;;;;;;;35.80;11.85;;;13.20;99.90;;;;;;4924981;29;20047;-73
2022/12/09 00:41:26;;;;;;;26.67;12.25;;;13.20;99.90;;;;;;4923004;29;20059;-72
2022/12/09 00:43:54;;;;;;;16.92;9.75;;;13.20;99.90;;;;;;4935167;29;20043;-72
2022/12/09 00:46:21;;;;;;;23.27;10.43;;;13.10;99.90;;;;;;4922093;29;20115;-73
2022/12/09 00:48:49;;;;;;;26.80;11.48;;;13.00;99.90;;;;;;4929911;29;20486;-72
2022/12/09 00:51:19;;;;;;;24.42;10.38;;;13.10;99.90;;;;;;4926029;29;20035;-73
2022/12/09 00:53:47;;;;;;;31.95;12.77;;;13.00;99.90;;;;;;4925506;29;20781;-72
2022/12/09 00:56:15;;;;;;;29.70;11.68;;;13.00;99.90;;;;;;4924371;29;20058;-73
2022/12/09 00:58:42;;;;;;;38.20;12.05;;;13.00;99.90;;;;;;4924625;29;20469;-72
2022/12/09 01:01:10;;;;;;;27.98;11.43;;;13.00;99.90;;;;;;4926601;29;20810;-73
2022/12/09 01:03:38;;;;;;;25.40;10.15;;;12.90;99.90;;;;;;4919371;29;20036;-73
2022/12/09 01:06:21;;;;;;;23.98;9.82;;;12.90;99.90;;;;;;4923989;29;20044;-73
2022/12/09 01:08:49;;;;;;;25.27;10.98;;;12.90;99.90;;;;;;4928645;29;20058;-73
2022/12/09 01:11:20;;;;;;;26.17;9.98;;;12.90;99.90;;;;;;4908988;29;20395;-74
2022/12/09 01:13:48;;;;;;;38.22;10.07;;;13.00;99.90;;;;;;4927938;29;20130;-73
2022/12/09 01:16:19;;;;;;;32.53;11.15;;;12.90;99.90;;;;;;4959096;28;20067;-74
2022/12/09 01:18:48;;;;;;;24.40;11.73;;;12.90;99.90;;;;;;4925540;29;20111;-74
2022/12/09 01:21:16;;;;;;;26.55;10.15;;;12.80;99.90;;;;;;4925909;29;20035;-73
2022/12/09 01:23:44;;;;;;;33.70;9.85;;;12.90;99.90;;;;;;4926895;29;20450;-73
2022/12/09 01:26:11;;;;;;;23.27;9.05;;;12.90;99.90;;;;;;4943032;29;20118;-73
2022/12/09 01:28:39;;;;;;;23.00;8.93;;;12.90;99.90;;;;;;4928336;29;20040;-74
2022/12/09 01:31:12;;;;;;;31.95;11.20;;;12.90;99.90;;;;;;4931490;29;20382;-72
2022/12/09 01:33:41;;;;;;;26.27;9.50;;;12.80;99.90;;;;;;4930282;29;20040;-72
2022/12/09 01:36:13;;;;;;;28.38;9.63;;;12.80;99.90;;;;;;4931991;29;20048;-73
2022/12/09 01:38:41;;;;;;;21.90;10.32;;;12.80;99.90;;;;;;4928775;29;20067;-73
2022/12/09 01:41:09;;;;;;;21.30;8.95;;;12.80;99.90;;;;;;4928210;29;20035;-74
2022/12/09 01:43:38;;;;;;;19.17;8.02;;;12.90;99.90;;;;;;4932666;29;20142;-72
2022/12/09 01:46:06;;;;;;;22.35;7.97;;;12.90;99.90;;;;;;4928139;29;20042;-74
2022/12/09 01:48:43;;;;;;;25.40;9.15;;;12.90;99.90;;;;;;4931435;29;20054;-74
2022/12/09 01:51:15;;;;;;;30.63;7.65;;;12.90;99.90;;;;;;4926517;29;20117;-73
2022/12/09 01:53:46;;;;;;;17.58;8.23;;;12.90;99.90;;;;;;4916101;29;20051;-73
2022/12/09 01:56:20;;;;;;;25.45;8.38;;;12.90;99.90;;;;;;4931422;29;20036;-72
2022/12/09 01:58:49;;;;;;;29.83;8.93;;;13.00;99.90;;;;;;4931431;29;20146;-73
2022/12/09 02:01:17;;;;;;;27.80;8.77;;;13.00;99.90;;;;;;4933061;29;20843;-72
2022/12/09 02:03:45;;;;;;;21.50;8.85;;;13.00;99.90;;;;;;4910971;29;20054;-73
2022/12/09 02:06:13;;;;;;;21.20;10.57;;;13.00;99.90;;;;;;4931130;29;20043;-72
2022/12/09 02:08:46;;;;;;;30.70;9.13;;;13.00;99.90;;;;;;4912993;29;20048;-73
2022/12/09 02:11:15;;;;;;;21.25;8.30;;;13.00;99.90;;;;;;4911082;29;20139;-72
2022/12/09 02:14:17;;;;;;;25.13;7.78;;;13.00;99.90;;;;;;4946691;29;20060;-72
2022/12/09 02:17:30;;;;;;;28.38;9.43;;;13.10;99.90;;;;;;4907478;29;20074;-73
2022/12/09 02:20:08;;;;;;;25.05;9.07;;;13.10;99.90;;;;;;4914627;28;20131;-73
2022/12/09 02:22:56;;;;;;;24.65;8.98;;;13.10;99.90;;;;;;4946326;29;20059;-73
2022/12/09 02:25:35;;;;;;;24.17;9.02;;;13.00;99.90;;;;;;4946721;29;20075;-73
2022/12/09 02:28:09;;;;;;;23.10;9.68;;;13.00;99.90;;;;;;4931540;29;20058;-74
2022/12/09 02:31:04;;;;;;;25.02;8.35;;;13.00;99.90;;;;;;4962723;28;20039;-73
2022/12/09 02:33:42;;;;;;;33.90;8.30;;;13.10;99.90;;;;;;4915302;29;20051;-73
2022/12/09 02:36:17;;;;;;;22.17;8.70;;;13.10;99.90;;;;;;4930923;29;20735;-74
2022/12/09 02:38:48;;;;;;;23.08;9.23;;;13.00;99.90;;;;;;4961532;28;20133;-74
2022/12/09 02:41:31;;;;;;;25.00;8.30;;;13.00;99.90;;;;;;4932975;29;20118;-74
2022/12/09 02:44:07;;;;;;;31.60;9.25;;;13.10;99.90;;;;;;4926406;29;20036;-74
2022/12/09 02:46:35;;;;;;;16.88;8.48;;;13.10;99.90;;;;;;4931101;28;20462;-74
2022/12/09 02:49:07;;;;;;;15.88;7.80;;;13.10;99.90;;;;;;4930956;29;20035;-73
2022/12/09 02:51:40;;;;;;;24.33;8.82;;;13.20;99.90;;;;;;4916314;29;20063;-74
2022/12/09 02:54:16;;;;;;;26.70;9.27;;;13.20;99.90;;;;;;4916476;29;20044;-74
2022/12/09 02:56:56;;;;;;;26.40;8.68;;;13.20;99.90;;;;;;4915883;29;20716;-74
2022/12/09 02:59:27;;;;;;;34.85;11.52;;;13.30;99.90;;;;;;4946262;29;20135;-74
2022/12/09 03:02:13;;;;;;;23.65;8.10;;;13.30;99.90;;;;;;4947883;29;20377;-75
2022/12/09 03:04:46;;;;;;;22.85;8.55;;;13.40;99.90;;;;;;4962136;28;20087;-75
2022/12/09 03:07:30;;;;;;;21.98;7.60;;;13.30;99.90;;;;;;4946472;29;20111;-75
2022/12/09 03:10:33;;;;;;;30.35;9.07;;;13.40;99.90;;;;;;4944408;29;20044;-74
2022/12/09 03:13:16;;;;;;;24.85;7.97;;;13.30;99.90;;;;;;4911862;29;20059;-74
2022/12/09 03:15:49;;;;;;;18.45;8.32;;;13.20;99.90;;;;;;4915302;29;20040;-74
2022/12/09 03:18:20;;;;;;;26.23;8.90;;;13.20;99.90;;;;;;4932367;29;20044;-74
2022/12/09 03:20:49;;;;;;;37.45;10.55;;;13.20;99.90;;;;;;4933505;29;20035;-74
2022/12/09 03:23:19;;;;;;;36.20;9.57;;;13.30;99.90;;;;;;4912040;29;20044;-74
2022/12/09 03:25:51;;;;;;;22.75;8.80;;;13.30;99.90;;;;;;4929016;29;20114;-74
2022/12/09 03:28:29;;;;;;;24.27;8.38;;;13.30;99.90;;;;;;4928423;29;20044;-74
2022/12/09 03:31:02;;;;;;;24.83;7.38;;;13.20;99.90;;;;;;4918192;29;20062;-74
2022/12/09 03:33:31;;;;;;;25.77;8.70;;;13.20;99.90;;;;;;4931247;29;20059;-74
2022/12/09 03:36:02;;;;;;;25.20;7.75;;;13.20;99.90;;;;;;4915669;29;20071;-74
2022/12/09 03:38:34;;;;;;;21.15;7.60;;;13.20;99.90;;;;;;4931307;29;20050;-74
2022/12/09 03:41:27;;;;;;;26.42;8.00;;;13.20;99.90;;;;;;4931199;29;20027;-74
2022/12/09 03:44:03;;;;;;;20.27;9.35;;;13.20;99.90;;;;;;4932722;29;20517;-74
2022/12/09 03:46:30;;;;;;;18.38;8.43;;;13.20;99.90;;;;;;4932723;29;20043;-74
2022/12/09 03:48:58;;;;;;;20.05;7.50;;;13.20;99.90;;;;;;4932669;29;20202;-74
2022/12/09 03:51:35;;;;;;;21.02;8.55;;;13.20;99.90;;;;;;4922832;29;20135;-75
2022/12/09 03:54:25;;;;;;;27.42;7.57;;;13.20;99.90;;;;;;4896855;29;20104;-74
2022/12/09 03:56:55;;;;;;;26.80;7.82;;;13.30;99.90;;;;;;4912209;29;20485;-74
2022/12/09 03:59:26;;;;;;;22.85;8.35;;;13.30;99.90;;;;;;4912703;29;20040;-74
2022/12/09 04:01:54;;;;;;;26.92;8.23;;;13.20;99.90;;;;;;4925196;29;20051;-74
2022/12/09 04:04:22;;;;;;;17.85;7.90;;;13.30;99.90;;;;;;4931742;29;20067;-74
2022/12/09 04:06:52;;;;;;;20.25;8.73;;;13.30;99.90;;;;;;4932636;29;20050;-74
2022/12/09 04:09:19;;;;;;;24.10;9.00;;;13.30;99.90;;;;;;4931475;29;20551;-74
2022/12/09 04:11:47;;;;;;;19.75;7.20;;;13.20;99.90;;;;;;4932311;29;20044;-75
2022/12/09 04:14:15;;;;;;;17.58;7.70;;;13.20;99.90;;;;;;4932040;29;20047;-74
2022/12/09 04:16:43;;;;;;;21.90;8.38;;;13.20;99.90;;;;;;4932354;29;20355;-74
2022/12/09 04:19:11;;;;;;;26.08;9.70;;;13.10;99.90;;;;;;4932334;29;20048;-74
2022/12/09 04:21:39;;;;;;;18.20;8.38;;;13.10;99.90;;;;;;4936474;29;20179;-74
2022/12/09 04:24:07;;;;;;;19.40;7.95;;;13.10;99.90;;;;;;4936649;29;20088;-74
2022/12/09 04:26:35;;;;;;;25.05;8.23;;;13.10;99.90;;;;;;4930270;29;20047;-75
2022/12/09 04:29:02;;;;;;;20.58;7.68;;;13.00;99.90;;;;;;4932051;29;20560;-74
2022/12/09 04:31:31;;;;;;;20.27;7.93;;;13.00;99.90;;;;;;4915216;29;20119;-74
2022/12/09 04:33:59;;;;;;;20.20;8.00;;;13.00;99.90;;;;;;4931246;29;20115;-74
2022/12/09 04:36:30;;;;;;;18.33;8.63;;;13.10;99.90;;;;;;4932700;29;20068;-74
2022/12/09 04:38:58;;;;;;;37.65;10.07;;;13.00;99.90;;;;;;4930142;29;20036;-74
2022/12/09 04:41:27;;;;;;;23.58;8.95;;;13.10;99.90;;;;;;4912495;29;20051;-75
2022/12/09 04:43:54;;;;;;;23.52;9.10;;;13.10;99.90;;;;;;4930800;29;20044;-74
2022/12/09 04:46:22;;;;;;;24.35;8.43;;;13.10;99.90;;;;;;4930731;29;20043;-74
2022/12/09 04:48:49;;;;;;;23.17;10.68;;;13.10;99.90;;;;;;4932247;29;20044;-74
2022/12/09 04:51:17;;;;;;;21.13;8.82;;;13.10;99.90;;;;;;4930568;29;20059;-75
2022/12/09 04:53:44;;;;;;;22.73;8.18;;;13.10;99.90;;;;;;4931325;29;20119;-74
2022/12/09 04:56:14;;;;;;;22.40;8.30;;;13.00;99.90;;;;;;4931925;29;20082;-74
2022/12/09 04:58:43;;;;;;;26.65;8.88;;;13.10;99.90;;;;;;4932148;29;20147;-74
2022/12/09 05:01:14;;;;;;;15.50;8.98;;;13.10;99.90;;;;;;4930604;29;20039;-74
2022/12/09 05:03:46;;;;;;;33.03;11.00;;;13.00;99.90;;;;;;4932883;29;20051;-74
2022/12/09 05:06:13;;;;;;;30.83;9.88;;;13.10;99.90;;;;;;4934667;29;20048;-74
2022/12/09 05:08:42;;;;;;;24.88;10.35;;;13.10;99.90;;;;;;4935863;29;20082;-74
2022/12/09 05:11:10;;;;;;;30.13;10.48;;;13.10;99.90;;;;;;4935572;29;20428;-75
2022/12/09 05:13:37;;;;;;;23.33;10.93;;;13.20;99.90;;;;;;4926523;29;20048;-74
2022/12/09 05:16:14;;;;;;;16.90;9.05;;;13.20;99.90;;;;;;4915453;29;20047;-74
2022/12/09 05:18:44;;;;;;;23.02;10.23;;;13.20;99.90;;;;;;4916446;29;20036;-74
2022/12/09 05:21:16;;;;;;;24.42;9.80;;;13.30;99.90;;;;;;4929285;29;20036;-74
2022/12/09 05:23:44;;;;;;;31.45;11.45;;;13.30;99.90;;;;;;4934384;29;20371;-74
2022/12/09 05:26:16;;;;;;;25.90;9.07;;;13.30;99.90;;;;;;4933799;29;20036;-73
2022/12/09 05:28:43;;;;;;;18.08;9.68;;;13.40;99.90;;;;;;4935848;29;20035;-74
2022/12/09 05:31:18;;;;;;;22.85;9.63;;;13.40;99.90;;;;;;4935572;29;20455;-75
2022/12/09 05:33:46;;;;;;;33.63;13.20;;;13.40;99.90;;;;;;4926194;29;20119;-74
2022/12/09 05:36:16;;;;;;;21.92;9.50;;;13.40;99.90;;;;;;4916479;29;20126;-74
2022/12/09 05:38:44;;;;;;;28.50;9.18;;;13.40;99.90;;;;;;4916281;29;20072;-74
2022/12/09 05:41:12;;;;;;;34.28;11.13;;;13.40;99.90;;;;;;4916138;29;20769;-74
2022/12/09 05:43:40;;;;;;;29.15;11.95;;;13.50;99.90;;;;;;4923075;29;20048;-74
2022/12/09 05:46:09;;;;;;;31.33;11.20;;;13.50;99.90;;;;;;4935225;29;20043;-74
2022/12/09 05:48:36;;;;;;;36.80;12.57;;;13.50;99.90;;;;;;4933757;29;20039;-74
2022/12/09 05:51:27;;;;;;;35.97;12.30;;;13.50;99.90;;;;;;4935255;29;20138;-74
2022/12/09 05:53:56;;;;;;;30.55;11.63;;;13.50;99.90;;;;;;4940385;29;20210;-74
2022/12/09 05:56:24;;;;;;;27.52;10.57;;;13.40;99.90;;;;;;4949633;29;20158;-74
2022/12/09 05:58:53;;;;;;;28.13;9.43;;;13.50;99.90;;;;;;4933467;29;20750;-73
2022/12/09 06:01:22;;;;;;;25.20;11.07;;;13.50;99.90;;;;;;4934919;29;20099;-74
2022/12/09 06:03:51;;;;;;;29.98;11.63;;;13.50;99.90;;;;;;4933975;29;20051;-74
2022/12/09 06:06:21;;;;;;;25.90;11.20;;;13.40;99.90;;;;;;4934944;29;20044;-74
2022/12/09 06:08:53;;;;;;;32.08;11.70;;;13.40;99.90;;;;;;4935312;29;20419;-74
2022/12/09 06:11:21;;;;;;;24.83;9.32;;;13.50;99.90;;;;;;4933642;29;20046;-73
2022/12/09 06:13:49;;;;;;;34.42;10.55;;;13.50;99.90;;;;;;4934036;29;20465;-73
2022/12/09 06:16:19;;;;;;;34.72;9.63;;;13.50;99.90;;;;;;4933348;29;20039;-74
2022/12/09 06:18:48;;;;;;;25.17;11.32;;;13.40;99.90;;;;;;4902702;29;20047;-73
2022/12/09 06:21:18;;;;;;;35.03;10.18;;;13.50;99.90;;;;;;4932784;29;20047;-73
2022/12/09 06:23:47;;;;;;;24.95;10.45;;;13.60;99.90;;;;;;4933047;29;20043;-74
2022/12/09 06:26:27;;;;;;;33.13;11.75;;;13.50;99.90;;;;;;4916745;29;20050;-73
2022/12/09 06:28:56;;;;;;;20.73;8.60;;;13.60;99.90;;;;;;4933320;29;20074;-74
2022/12/09 06:31:24;;;;;;;27.75;9.25;;;13.70;99.90;;;;;;4917254;29;20146;-74
2022/12/09 06:33:52;;;;;;;31.15;9.45;;;13.80;99.90;;;;;;4933974;29;20044;-73
2022/12/09 06:36:22;;;;;;;47.35;11.35;;;13.90;99.90;;;;;;4948556;29;20044;-74
2022/12/09 06:38:50;;;;;;;24.42;8.90;;;14.00;99.90;;;;;;4932332;29;20055;-74
2022/12/09 06:41:18;;;;;;;44.65;9.80;;;14.00;99.90;;;;;;4929973;29;20043;-74
2022/12/09 06:43:46;;;;;;;37.22;10.95;;;14.00;99.90;;;;;;4925063;29;20406;-74
2022/12/09 06:46:15;;;;;;;34.25;10.85;;;14.10;99.90;;;;;;4914671;29;20479;-74
2022/12/09 06:48:44;;;;;;;44.05;14.32;;;14.10;99.90;;;;;;4914896;29;20394;-74
2022/12/09 06:51:12;;;;;;;20.20;8.57;;;14.10;99.90;;;;;;4914244;29;20059;-74
2022/12/09 06:53:39;;;;;;;28.00;9.38;;;14.20;99.90;;;;;;4920642;29;20201;-74
2022/12/09 06:56:09;;;;;;;41.97;11.75;;;14.20;99.90;;;;;;4932093;29;20558;-74
2022/12/09 06:58:39;;;;;;;35.35;12.52;;;14.30;99.90;;;;;;4932309;29;20083;-74
2022/12/09 07:01:18;;;;;;;38.75;12.93;;;14.30;99.90;;;;;;4932491;29;20569;-74
2022/12/09 07:03:48;;;;;;;30.42;11.93;;;14.40;99.90;;;;;;4924525;29;20393;-74
2022/12/09 07:06:45;;;;;;;32.00;11.73;;;14.50;99.90;;;;;;4914709;29;20089;-74
2022/12/09 07:09:18;;;;;;;29.25;10.23;;;14.50;99.90;;;;;;4906287;29;20131;-74
2022/12/09 07:11:47;;;;;;;42.80;11.95;;;14.50;99.90;;;;;;4915178;29;20052;-74
2022/12/09 07:14:16;;;;;;;31.05;10.57;;;14.50;99.90;;;;;;4924934;29;20059;-74
2022/12/09 07:16:44;;;;;;;35.85;11.70;;;14.50;99.90;;;;;;4933278;29;20414;-74
2022/12/09 07:19:21;;;;;;;37.75;11.70;;;14.50;99.90;;;;;;4928916;29;20110;-74
2022/12/09 07:21:50;;;;;;;39.40;11.13;;;14.70;99.90;;;;;;4933883;29;20055;-74
2022/12/09 07:24:18;;;;;;;51.15;10.55;;;14.80;99.90;;;;;;4913275;29;20100;-74
2022/12/09 07:26:46;;;;;;;40.25;12.07;;;14.80;99.90;;;;;;4914758;29;20040;-74
2022/12/09 07:29:14;;;;;;;30.13;10.45;;;15.00;99.90;;;;;;4931882;29;20067;-74
2022/12/09 07:31:46;;;;;;;38.78;11.80;;;15.20;99.90;;;;;;4934101;29;20051;-74
2022/12/09 07:34:15;;;;;;;46.13;10.48;;;15.30;99.90;;;;;;4932667;29;20047;-74
2022/12/09 07:36:42;;;;;;;51.17;11.18;;;15.30;99.90;;;;;;4915885;29;20039;-74
2022/12/09 07:39:13;;;;;;;39.63;11.38;;;15.20;99.90;;;;;;4933065;29;20346;-75
2022/12/09 07:41:41;;;;;;;42.05;10.82;;;15.20;99.90;;;;;;4924830;29;20138;-75
2022/12/09 07:44:10;;;;;;;31.38;11.23;;;15.40;99.90;;;;;;4927327;29;20051;-73
2022/12/09 07:46:38;;;;;;;44.42;11.05;;;15.70;99.90;;;;;;4925012;29;20048;-73
2022/12/09 07:49:06;;;;;;;42.83;12.13;;;15.80;99.90;;;;;;4941719;29;20040;-75
2022/12/09 07:51:34;;;;;;;46.15;11.63;;;15.90;99.90;;;;;;4945430;29;20138;-74
2022/12/09 07:54:02;;;;;;;48.65;14.00;;;15.90;99.90;;;;;;4920128;29;20154;-73
2022/12/09 07:56:30;;;;;;;45.92;13.98;;;15.80;99.90;;;;;;4931483;29;20036;-73
2022/12/09 07:58:58;;;;;;;33.55;10.52;;;15.70;99.90;;;;;;4929843;29;20050;-73
2022/12/09 08:01:28;;;;;;;35.97;10.23;;;15.60;99.90;;;;;;4927766;29;20043;-73
2022/12/09 08:03:57;;;;;;;38.17;11.95;;;15.50;99.90;;;;;;4926288;29;20043;-73
2022/12/09 08:06:27;;;;;;;53.08;15.48;;;15.40;99.90;;;;;;4928705;29;20051;-73
2022/12/09 08:09:00;;;;;;;49.60;13.55;;;15.40;99.90;;;;;;4945330;29;20043;-73
2022/12/09 08:11:29;;;;;;;55.17;13.52;;;15.40;99.90;;;;;;4945349;29;20040;-74
2022/12/09 08:14:00;;;;;;;43.92;14.60;;;15.40;99.90;;;;;;4943763;29;20055;-73
2022/12/09 08:16:30;;;;;;;42.40;13.45;;;15.40;99.90;;;;;;4930016;29;20058;-73
2022/12/09 08:19:00;;;;;;;46.38;11.20;;;15.40;99.90;;;;;;4929566;29;20046;-74
2022/12/09 08:21:31;;;;;;;44.50;13.80;;;15.40;99.90;;;;;;4926276;29;20048;-73
2022/12/09 08:24:00;;;;;;;47.28;12.98;;;15.50;99.90;;;;;;4928480;29;20363;-74
2022/12/09 08:26:30;;;;;;;42.40;11.35;;;15.50;99.90;;;;;;4926920;29;20114;-74
2022/12/09 08:29:06;;;;;;;38.95;12.82;;;15.50;99.90;;;;;;4929244;29;20036;-74
2022/12/09 08:31:34;;;;;;;39.30;12.00;;;15.50;99.90;;;;;;4942132;29;20047;-74
2022/12/09 08:34:06;;;;;;;43.22;12.80;;;15.50;99.90;;;;;;4940742;28;20123;-73
2022/12/09 08:36:35;;;;;;;43.88;12.07;;;15.50;99.90;;;;;;4927181;29;20040;-73
2022/12/09 08:39:03;;;;;;;45.60;12.73;;;15.60;99.90;;;;;;4927904;29;20058;-73
2022/12/09 08:41:36;;;;;;;27.98;10.75;;;15.60;99.90;;;;;;4928767;29;20086;-75
2022/12/09 08:44:16;;;;;;;43.03;13.50;;;15.70;99.90;;;;;;4927701;29;20051;-73
2022/12/09 08:46:47;;;;;;;34.42;10.23;;;15.70;99.90;;;;;;4924512;29;20075;-73
2022/12/09 08:49:17;;;;;;;49.55;10.57;;;15.80;99.90;;;;;;4922359;29;20154;-74
2022/12/09 08:51:46;;;;;;;30.50;11.80;;;15.90;99.90;;;;;;4921529;29;20048;-76
2022/12/09 08:54:14;;;;;;;50.75;12.73;;;16.00;99.90;;;;;;4926670;29;20553;-73
2022/12/09 08:56:46;;;;;;;44.90;15.02;;;16.00;99.90;;;;;;4929989;29;20155;-74
2022/12/09 08:59:15;;;;;;;34.33;12.48;;;16.20;99.90;;;;;;4929161;29;20048;-75
2022/12/09 09:01:43;;;;;;;31.23;11.55;;;16.20;99.90;;;;;;4927057;29;20489;-73
2022/12/09 09:04:14;;;;;;;40.63;13.30;;;16.30;99.90;;;;;;4944246;29;20402;-74
2022/12/09 09:06:43;;;;;;;40.53;13.60;;;16.40;99.90;;;;;;4928879;29;20383;-74
2022/12/09 09:09:12;;;;;;;33.53;12.23;;;16.50;99.90;;;;;;4926653;29;20538;-73
2022/12/09 09:11:41;;;;;;;35.60;10.32;;;16.60;99.90;;;;;;4927290;29;20391;-73
2022/12/09 09:14:10;;;;;;;30.98;9.75;;;16.70;99.90;;;;;;4929286;29;20044;-76
2022/12/09 09:16:41;;;;;;;19.65;7.50;;;16.80;99.90;;;;;;4918708;29;20064;-73
2022/12/09 09:19:14;;;;;;;24.00;7.60;;;16.80;99.90;;;;;;4929695;29;20039;-73
2022/12/09 09:21:42;;;;;;;23.85;7.30;;;16.90;99.90;;;;;;4930111;29;20047;-74
2022/12/09 09:24:13;;;;;;;25.08;7.93;;;16.90;99.90;;;;;;4930151;29;20044;-74
2022/12/09 09:26:42;;;;;;;20.60;7.90;;;17.00;99.90;;;;;;4925406;29;20040;-74
2022/12/09 09:29:12;;;;;;;19.92;8.60;;;17.10;99.90;;;;;;4911261;29;20394;-73
2022/12/09 09:31:39;;;;;;;21.02;6.40;;;17.20;99.90;;;;;;4911316;29;20059;-75
2022/12/09 09:34:07;;;;;;;26.70;7.80;;;17.20;99.90;;;;;;4912070;29;20048;-72
2022/12/09 09:36:35;;;;;;;19.85;6.22;;;17.30;99.90;;;;;;4912139;29;20063;-72
2022/12/09 09:39:03;;;;;;;23.70;6.78;;;17.40;99.90;;;;;;4930348;29;20134;-73
2022/12/09 09:41:37;;;;;;;22.13;6.95;;;17.30;99.90;;;;;;4914215;29;20075;-73
2022/12/09 09:44:36;;;;;;;13.65;5.75;;;17.30;99.90;;;;;;4930567;29;20119;-73
2022/12/09 09:47:38;;;;;;;18.50;5.75;;;17.20;99.90;;;;;;4931628;29;20108;-77
2022/12/09 09:50:18;;;;;;;14.98;6.40;;;17.20;99.90;;;;;;4932054;29;20042;-74
2022/12/09 09:52:46;;;;;;;15.38;5.50;;;17.10;99.90;;;;;;4933661;29;20077;-75
2022/12/09 09:55:16;;;;;;;13.55;4.70;;;17.10;99.90;;;;;;4933681;29;20043;-74
2022/12/09 09:57:59;;;;;;;23.00;6.95;;;17.00;99.90;;;;;;4935238;29;20102;-74
2022/12/09 10:00:32;;;;;;;14.63;5.60;;;17.00;99.90;;;;;;4934860;29;20174;-74
2022/12/09 10:03:18;;;;;;;12.88;5.70;;;17.00;99.90;;;;;;4917944;29;20075;-74
2022/12/09 10:05:53;;;;;;;9.88;4.97;;;17.00;99.90;;;;;;4916152;29;20431;-74
2022/12/09 10:08:44;;;;;;;13.63;5.00;;;17.10;99.90;;;;;;4899207;29;20079;-74
2022/12/09 10:11:21;;;;;;;13.10;4.95;;;17.10;99.90;;;;;;4932706;29;20075;-74
2022/12/09 10:14:16;;;;;;;17.45;4.70;;;17.30;99.90;;;;;;4946537;29;20378;-74
2022/12/09 10:17:02;;;;;;;17.02;4.57;;;17.40;99.90;;;;;;4914825;29;20051;-78
2022/12/09 10:19:32;;;;;;;;;;;17.30;99.90;;;;;;4932242;29;20044;-75
2022/12/09 10:22:12;;;;;;;19.30;6.70;;;17.40;99.90;;;;;;4933439;29;19927;-73
2022/12/09 10:24:50;;;;;;;10.10;4.57;;;17.40;99.90;;;;;;4971024;23;20073;-74
2022/12/09 10:28:12;;;;;;;12.43;5.43;;;17.30;99.90;;;;;;4973701;28;20043;-72
2022/12/09 10:30:40;;;;;;;11.60;4.65;;;17.30;99.90;;;;;;4898035;29;20229;-73
2022/12/09 10:33:14;;;;;;;8.25;4.60;;;17.30;99.90;;;;;;4962104;28;20043;-76
2022/12/09 10:35:43;;;;;;;12.55;5.25;;;17.30;99.90;;;;;;4953101;29;20055;-72
2022/12/09 10:38:16;;;;;;;15.82;4.10;;;17.40;99.90;;;;;;4954093;28;20182;-73
2022/12/09 10:40:51;;;;;;;14.55;4.78;;;17.40;99.90;;;;;;4972504;28;20481;-72
2022/12/09 10:46:05;;;;;;;14.77;7.35;;;17.50;99.90;;;;;;4955683;28;20055;-75
2022/12/09 10:48:49;;;;;;;16.33;7.23;;;17.50;99.90;;;;;;4973510;28;20047;-73
2022/12/09 10:51:33;;;;;;;15.00;5.22;;;17.50;99.90;;;;;;4955548;28;20050;-74
2022/12/09 10:54:04;;;;;;;13.88;4.68;;;17.40;99.90;;;;;;4972514;28;20074;-73
2022/12/09 10:56:34;;;;;;;11.73;3.95;;;17.30;99.90;;;;;;4956843;28;20046;-74
2022/12/09 10:59:22;;;;;;;11.02;4.95;;;17.40;99.90;;;;;;4973224;28;20042;-75
2022/12/09 11:01:52;;;;;;;16.88;4.47;;;17.40;99.90;;;;;;4973070;28;20134;-73
2022/12/09 11:04:29;;;;;;;14.00;4.57;;;17.40;99.90;;;;;;4963503;28;20066;-73
2022/12/09 11:07:10;;;;;;;8.00;3.83;;;17.50;99.90;;;;;;4953978;29;20069;-73
2022/12/09 11:09:42;;;;;;;15.00;5.65;;;17.50;99.90;;;;;;4940096;29;20051;-75
2022/12/09 11:12:38;;;;;;;11.25;4.72;;;17.50;99.90;;;;;;4954540;28;20130;-74
2022/12/09 11:15:28;;;;;;;7.22;3.95;;;17.50;99.90;;;;;;4953558;28;20043;-75
2022/12/09 11:18:21;;;;;;;7.10;4.25;;;17.50;99.90;;;;;;4954605;28;20118;-73
2022/12/09 11:20:59;;;;;;;8.60;3.92;;;17.40;99.90;;;;;;4953623;29;20055;-74
2022/12/09 11:23:29;;;;;;;10.18;4.28;;;17.40;99.90;;;;;;4952571;28;20432;-73
2022/12/09 11:25:59;;;;;;;10.13;3.22;;;17.40;99.90;;;;;;4952662;29;20110;-74
2022/12/09 11:28:31;;;;;;;12.15;3.75;;;17.40;99.90;;;;;;4953811;29;20043;-73
2022/12/09 11:31:06;;;;;;;13.18;4.22;;;17.40;99.90;;;;;;4952804;29;20047;-74
2022/12/09 11:33:57;;;;;;;21.73;4.85;;;17.40;99.90;;;;;;4952680;29;20383;-74
2022/12/09 11:36:28;;;;;;;13.52;4.28;;;17.40;99.90;;;;;;4952718;29;20059;-73
2022/12/09 11:39:18;;;;;;;11.30;4.75;;;17.40;99.90;;;;;;4952018;29;20039;-73
2022/12/09 11:44:59;;;;;;;12.13;3.67;;;17.40;99.90;;;;;;4965072;28;20138;-73
2022/12/09 11:47:43;;;;;;;8.65;3.83;;;17.40;99.90;;;;;;4972493;28;20162;-75
2022/12/09 11:50:33;;;;;;;12.38;3.05;;;17.30;99.90;;;;;;4971817;28;20042;-74
2022/12/09 11:53:10;;;;;;;9.63;4.13;;;17.20;99.90;;;;;;4970801;28;20042;-74
2022/12/09 11:55:48;;;;;;;8.30;4.00;;;17.20;99.90;;;;;;4972769;28;20055;-73
2022/12/09 11:58:48;;;;;;;16.13;4.13;;;17.20;99.90;;;;;;4971419;28;20170;-74
2022/12/09 12:01:31;;;;;;;9.32;3.80;;;17.10;99.90;;;;;;4970918;28;20153;-74
2022/12/09 12:04:04;;;;;;;10.82;4.32;;;17.10;99.90;;;;;;4970349;28;20057;-74
2022/12/09 12:06:47;;;;;;;10.00;4.20;;;17.10;99.90;;;;;;4971839;28;20110;-75
2022/12/09 12:09:28;;;;;;;13.40;5.65;;;17.10;99.90;;;;;;4972020;28;20047;-74
2022/12/09 12:12:04;;;;;;;11.52;4.15;;;17.10;99.90;;;;;;4972163;28;20055;-75
2022/12/09 12:14:35;;;;;;;10.32;4.97;;;17.10;99.90;;;;;;4954955;28;20138;-74
2022/12/09 12:17:14;;;;;;;16.52;5.32;;;17.10;99.90;;;;;;4971923;28;20740;-74
2022/12/09 12:19:44;;;;;;;9.63;4.35;;;17.00;99.90;;;;;;4970302;28;20053;-74
2022/12/09 12:22:31;;;;;;;25.98;4.47;;;17.00;99.90;;;;;;4953761;28;20109;-73
2022/12/09 12:25:40;;;;;;;11.25;3.90;;;17.00;99.90;;;;;;4969953;28;20090;-73
2022/12/09 12:28:30;;;;;;;8.10;3.95;;;17.00;99.90;;;;;;4971074;28;20500;-76
2022/12/09 12:31:09;;;;;;;20.67;5.00;;;16.90;99.90;;;;;;4967383;28;20121;-74
2022/12/09 12:33:54;;;;;;;11.20;4.68;;;16.90;99.90;;;;;;4951299;28;20043;-75
2022/12/09 12:36:55;;;;;;;9.95;3.90;;;16.80;99.90;;;;;;4968623;28;20489;-74
2022/12/09 12:39:29;;;;;;;14.90;4.63;;;16.80;99.90;;;;;;4960775;28;20711;-82
2022/12/09 12:42:04;;;;;;;11.18;4.90;;;16.80;99.90;;;;;;4966376;28;20048;-74
2022/12/09 12:47:50;;;;;;;19.60;5.40;;;16.80;99.90;;;;;;4969986;28;20050;-74
2022/12/09 12:50:46;;;;;;;9.90;3.75;;;16.80;99.90;;;;;;4970491;28;20063;-76
2022/12/09 12:53:26;;;;;;;11.85;4.72;;;16.70;99.90;;;;;;4967378;28;20101;-73
2022/12/09 12:56:22;;;;;;;11.18;3.92;;;16.70;99.90;;;;;;4955236;28;20161;-76
2022/12/09 12:59:08;;;;;;;12.85;5.28;;;16.70;99.90;;;;;;4970156;28;20125;-77
2022/12/09 13:01:50;;;;;;;14.35;4.28;;;16.70;99.90;;;;;;4969087;28;20063;-76
2022/12/09 13:04:38;;;;;;;8.35;4.53;;;16.60;99.90;;;;;;4967728;28;20890;-75
2022/12/09 13:07:37;;;;;;;9.25;4.70;;;16.60;99.90;;;;;;4970428;28;20053;-73
2022/12/09 13:10:13;;;;;;;13.05;6.07;;;16.60;99.90;;;;;;4970878;28;20081;-73
2022/12/09 13:12:53;;;;;;;22.15;7.10;;;16.60;99.90;;;;;;4963503;28;20055;-73
2022/12/09 13:15:33;;;;;;;15.38;4.63;;;16.60;99.90;;;;;;4955684;28;20047;-72